FDX425 KSDF-KBOS
Flight info
| Callsign | FDX425 |
|---|---|
| Flight time | 1h 48m |
| Altitude | 37000 |
| Route | EEVAA1 SHIPR AIR ETG MTCAF PONCT JFUND2 |
| Aircraft | MD11/H-SDE1E2E3FGHIJ2J3J4J5M1RWXY/LB1D1 |
Departure
| Time | 2026-05-03 22:55 |
|---|---|
| Airport | Louisville Muhammad Ali International Airport (KSDF) |
Arrival
| Time | 2026-05-04 00:43 |
|---|---|
| Airport | Boston Logan International Airport (KBOS) |
| Time | Latitude | Longitude | Altitude | Speed | Heading |
|---|---|---|---|---|---|
| 2026-05-03 22:02 | 38.17610 | -85.74831 | 515 ft | 0 kts | 255° |
| 2026-05-03 22:32 | 38.17612 | -85.74820 | 485 ft | 4 kts | 249° |
| 2026-05-03 22:32 | 38.17624 | -85.74793 | 486 ft | 4 kts | 240° |
| 2026-05-03 22:33 | 38.17632 | -85.74769 | 487 ft | 4 kts | 264° |
| 2026-05-03 22:33 | 38.17631 | -85.74741 | 496 ft | 4 kts | 303° |
| 2026-05-03 22:33 | 38.17615 | -85.74721 | 485 ft | 4 kts | 337° |
| 2026-05-03 22:33 | 38.17590 | -85.74710 | 487 ft | 3 kts | 345° |
| 2026-05-03 22:34 | 38.17565 | -85.74702 | 490 ft | 4 kts | 345° |
| 2026-05-03 22:34 | 38.17539 | -85.74693 | 485 ft | 4 kts | 345° |
| 2026-05-03 22:34 | 38.17512 | -85.74684 | 485 ft | 4 kts | 345° |
| 2026-05-03 22:34 | 38.17492 | -85.74678 | 488 ft | 4 kts | 345° |
| 2026-05-03 22:35 | 38.17479 | -85.74673 | 496 ft | 0 kts | 345° |
| 2026-05-03 22:43 | 38.17485 | -85.74675 | 486 ft | 4 kts | 345° |
| 2026-05-03 22:43 | 38.17534 | -85.74690 | 496 ft | 14 kts | 346° |
| 2026-05-03 22:43 | 38.17679 | -85.74739 | 491 ft | 28 kts | 345° |
| 2026-05-03 22:43 | 38.17872 | -85.74803 | 488 ft | 28 kts | 345° |
| 2026-05-03 22:44 | 38.18046 | -85.74860 | 487 ft | 24 kts | 345° |
| 2026-05-03 22:44 | 38.18193 | -85.74909 | 493 ft | 16 kts | 346° |
| 2026-05-03 22:44 | 38.18292 | -85.74941 | 487 ft | 14 kts | 346° |
| 2026-05-03 22:44 | 38.18366 | -85.74963 | 487 ft | 7 kts | 351° |
| 2026-05-03 22:45 | 38.18406 | -85.74955 | 488 ft | 5 kts | 24° |
| 2026-05-03 22:45 | 38.18422 | -85.74937 | 497 ft | 1 kts | 48° |
| 2026-05-03 22:45 | 38.18423 | -85.74935 | 497 ft | 0 kts | 50° |
| 2026-05-03 22:46 | 38.18425 | -85.74933 | 497 ft | 0 kts | 51° |
| 2026-05-03 22:52 | 38.18437 | -85.74901 | 489 ft | 10 kts | 66° |
| 2026-05-03 22:52 | 38.18445 | -85.74813 | 492 ft | 7 kts | 114° |
| 2026-05-03 22:53 | 38.18407 | -85.74783 | 498 ft | 7 kts | 160° |
| 2026-05-03 22:53 | 38.18379 | -85.74771 | 491 ft | 0 kts | 163° |
| 2026-05-03 22:54 | 38.18374 | -85.74769 | 493 ft | 4 kts | 163° |
| 2026-05-03 22:54 | 38.18232 | -85.74728 | 492 ft | 47 kts | 165° |
| 2026-05-03 22:54 | 38.17553 | -85.74505 | 487 ft | 152 kts | 165° |
| 2026-05-03 22:54 | 38.16350 | -85.74082 | 1093 ft | 181 kts | 170° |
| 2026-05-03 22:55 | 38.15226 | -85.73700 | 2894 ft | 167 kts | 171° |
| 2026-05-03 22:55 | 38.14019 | -85.73503 | 3870 ft | 178 kts | 186° |
| 2026-05-03 22:55 | 38.12765 | -85.73536 | 4855 ft | 184 kts | 182° |
| 2026-05-03 22:55 | 38.11370 | -85.73489 | 5332 ft | 220 kts | 182° |
| 2026-05-03 22:56 | 38.09687 | -85.73459 | 5630 ft | 257 kts | 183° |
| 2026-05-03 22:56 | 38.07861 | -85.73432 | 6666 ft | 267 kts | 185° |
| 2026-05-03 22:56 | 38.05971 | -85.73410 | 7647 ft | 275 kts | 186° |
| 2026-05-03 22:56 | 38.04027 | -85.73374 | 8610 ft | 285 kts | 183° |
| 2026-05-03 22:57 | 38.02043 | -85.72780 | 9588 ft | 303 kts | 165° |
| 2026-05-03 22:57 | 38.00072 | -85.71627 | 10298 ft | 325 kts | 158° |
| 2026-05-03 22:57 | 37.97951 | -85.70210 | 10436 ft | 363 kts | 156° |
| 2026-05-03 22:57 | 37.95728 | -85.68488 | 10832 ft | 389 kts | 146° |
| 2026-05-03 22:58 | 37.93776 | -85.66060 | 11738 ft | 404 kts | 129° |
| 2026-05-03 22:58 | 37.92515 | -85.62888 | 12186 ft | 407 kts | 102° |
| 2026-05-03 22:58 | 37.92343 | -85.59293 | 13215 ft | 405 kts | 80° |
| 2026-05-03 22:58 | 37.92994 | -85.55832 | 14049 ft | 405 kts | 66° |
| 2026-05-03 22:59 | 37.94014 | -85.52493 | 14865 ft | 408 kts | 63° |
| 2026-05-03 22:59 | 37.95100 | -85.49161 | 15672 ft | 412 kts | 64° |
| 2026-05-03 22:59 | 37.95862 | -85.45667 | 16439 ft | 422 kts | 77° |
| 2026-05-03 22:59 | 37.96108 | -85.41923 | 17234 ft | 430 kts | 85° |
| 2026-05-03 23:00 | 37.96087 | -85.38097 | 17991 ft | 437 kts | 89° |
| 2026-05-03 23:00 | 37.95964 | -85.34224 | 18674 ft | 442 kts | 90° |
| 2026-05-03 23:00 | 37.95829 | -85.30336 | 19299 ft | 447 kts | 89° |
| 2026-05-03 23:00 | 37.95765 | -85.26377 | 19926 ft | 450 kts | 87° |
| 2026-05-03 23:01 | 37.95774 | -85.22403 | 20522 ft | 454 kts | 86° |
| 2026-05-03 23:01 | 37.95822 | -85.18399 | 21132 ft | 458 kts | 85° |
| 2026-05-03 23:01 | 37.95887 | -85.14359 | 21745 ft | 463 kts | 85° |
| 2026-05-03 23:01 | 37.95955 | -85.10268 | 22369 ft | 467 kts | 85° |
| 2026-05-03 23:02 | 37.96021 | -85.06128 | 23002 ft | 472 kts | 85° |
| 2026-05-03 23:02 | 37.96085 | -85.01946 | 23625 ft | 477 kts | 85° |
| 2026-05-03 23:02 | 37.96144 | -84.97718 | 24155 ft | 482 kts | 86° |
| 2026-05-03 23:02 | 37.96202 | -84.93453 | 24695 ft | 487 kts | 86° |
| 2026-05-03 23:03 | 37.96256 | -84.89193 | 25229 ft | 492 kts | 86° |
| 2026-05-03 23:03 | 37.96311 | -84.84839 | 25785 ft | 497 kts | 86° |
| 2026-05-03 23:03 | 37.96364 | -84.80444 | 26332 ft | 502 kts | 86° |
| 2026-05-03 23:03 | 37.96416 | -84.76000 | 26875 ft | 507 kts | 86° |
| 2026-05-03 23:04 | 37.96468 | -84.71500 | 27409 ft | 512 kts | 86° |
| 2026-05-03 23:04 | 37.96519 | -84.66966 | 27925 ft | 517 kts | 86° |
| 2026-05-03 23:04 | 37.96568 | -84.62378 | 28422 ft | 523 kts | 86° |
| 2026-05-03 23:04 | 37.96616 | -84.57751 | 28930 ft | 528 kts | 86° |
| 2026-05-03 23:05 | 37.96772 | -84.53079 | 29423 ft | 530 kts | 81° |
| 2026-05-03 23:05 | 37.97449 | -84.48488 | 29916 ft | 528 kts | 69° |
| 2026-05-03 23:05 | 37.98779 | -84.44176 | 30347 ft | 523 kts | 57° |
| 2026-05-03 23:05 | 38.00648 | -84.40352 | 30861 ft | 513 kts | 46° |
| 2026-05-03 23:06 | 38.02909 | -84.36799 | 31430 ft | 509 kts | 42° |
| 2026-05-03 23:06 | 38.05195 | -84.33460 | 31989 ft | 508 kts | 41° |
| 2026-05-03 23:06 | 38.07483 | -84.30046 | 32585 ft | 508 kts | 43° |
| 2026-05-03 23:06 | 38.09710 | -84.26557 | 33122 ft | 510 kts | 44° |
| 2026-05-03 23:07 | 38.11885 | -84.22992 | 33599 ft | 511 kts | 45° |
| 2026-05-03 23:07 | 38.14023 | -84.19379 | 34104 ft | 511 kts | 46° |
| 2026-05-03 23:07 | 38.16134 | -84.15752 | 34534 ft | 511 kts | 46° |
| 2026-05-03 23:07 | 38.18249 | -84.12098 | 34926 ft | 511 kts | 46° |
| 2026-05-03 23:08 | 38.20359 | -84.08451 | 35308 ft | 511 kts | 47° |
| 2026-05-03 23:08 | 38.22468 | -84.04808 | 35694 ft | 511 kts | 47° |
| 2026-05-03 23:08 | 38.24565 | -84.01190 | 36065 ft | 511 kts | 47° |
| 2026-05-03 23:08 | 38.26680 | -83.97540 | 36439 ft | 511 kts | 47° |
| 2026-05-03 23:09 | 38.28790 | -83.93900 | 36826 ft | 510 kts | 47° |
| 2026-05-03 23:09 | 38.30901 | -83.90256 | 36989 ft | 513 kts | 47° |
| 2026-05-03 23:09 | 38.33026 | -83.86587 | 37015 ft | 516 kts | 47° |
| 2026-05-03 23:10 | 38.37251 | -83.79261 | 37030 ft | 517 kts | 48° |
| 2026-05-03 23:10 | 38.41502 | -83.71867 | 37016 ft | 517 kts | 47° |
| 2026-05-03 23:11 | 38.45764 | -83.64463 | 37020 ft | 517 kts | 47° |
| 2026-05-03 23:11 | 38.50009 | -83.57051 | 37033 ft | 517 kts | 48° |
| 2026-05-03 23:12 | 38.54234 | -83.49611 | 37021 ft | 518 kts | 48° |
| 2026-05-03 23:12 | 38.58477 | -83.42155 | 37015 ft | 518 kts | 48° |
| 2026-05-03 23:13 | 38.62720 | -83.34702 | 37014 ft | 518 kts | 48° |
| 2026-05-03 23:13 | 38.66934 | -83.27286 | 37015 ft | 518 kts | 48° |
| 2026-05-03 23:14 | 38.71172 | -83.19813 | 37024 ft | 518 kts | 48° |
| 2026-05-03 23:14 | 38.75400 | -83.12336 | 37006 ft | 518 kts | 48° |
| 2026-05-03 23:15 | 38.79624 | -83.04852 | 37000 ft | 518 kts | 49° |
| 2026-05-03 23:15 | 38.83837 | -82.97369 | 36997 ft | 518 kts | 49° |
| 2026-05-03 23:16 | 38.88049 | -82.89868 | 36997 ft | 518 kts | 49° |
| 2026-05-03 23:16 | 38.92255 | -82.82361 | 37004 ft | 517 kts | 49° |
| 2026-05-03 23:17 | 38.96454 | -82.74850 | 37000 ft | 518 kts | 49° |
| 2026-05-03 23:17 | 39.00623 | -82.67329 | 36995 ft | 520 kts | 49° |
| 2026-05-03 23:18 | 39.04812 | -82.59755 | 36993 ft | 520 kts | 49° |
| 2026-05-03 23:18 | 39.09014 | -82.52171 | 36998 ft | 520 kts | 49° |
| 2026-05-03 23:19 | 39.13209 | -82.44597 | 37008 ft | 519 kts | 49° |
| 2026-05-03 23:19 | 39.17400 | -82.37013 | 36996 ft | 520 kts | 49° |
| 2026-05-03 23:20 | 39.21581 | -82.29431 | 36979 ft | 522 kts | 49° |
| 2026-05-03 23:20 | 39.25779 | -82.21795 | 36996 ft | 522 kts | 49° |
| 2026-05-03 23:21 | 39.29973 | -82.14146 | 36976 ft | 521 kts | 49° |
| 2026-05-03 23:21 | 39.34157 | -82.06500 | 37001 ft | 520 kts | 49° |
| 2026-05-03 23:22 | 39.40408 | -81.95041 | 36998 ft | 520 kts | 49° |
| 2026-05-03 23:22 | 39.44572 | -81.87389 | 36999 ft | 519 kts | 49° |
| 2026-05-03 23:23 | 39.48677 | -81.79781 | 36993 ft | 520 kts | 50° |
| 2026-05-03 23:23 | 39.52814 | -81.72095 | 37012 ft | 519 kts | 49° |
| 2026-05-03 23:24 | 39.56275 | -81.65684 | 36990 ft | 518 kts | 49° |
| 2026-05-03 23:24 | 39.60378 | -81.58071 | 36987 ft | 519 kts | 50° |
| 2026-05-03 23:25 | 39.64504 | -81.50383 | 36994 ft | 519 kts | 50° |
| 2026-05-03 23:25 | 39.68630 | -81.42686 | 36993 ft | 519 kts | 50° |
| 2026-05-03 23:26 | 39.72747 | -81.34989 | 36996 ft | 518 kts | 50° |
| 2026-05-03 23:26 | 39.76842 | -81.27318 | 36991 ft | 517 kts | 50° |
| 2026-05-03 23:27 | 39.80941 | -81.19624 | 36987 ft | 517 kts | 50° |
| 2026-05-03 23:27 | 39.85028 | -81.11929 | 36988 ft | 517 kts | 50° |
| 2026-05-03 23:28 | 39.89109 | -81.04228 | 36984 ft | 517 kts | 50° |
| 2026-05-03 23:28 | 39.93186 | -80.96508 | 36992 ft | 516 kts | 50° |
| 2026-05-03 23:29 | 39.97231 | -80.88771 | 36978 ft | 516 kts | 50° |
| 2026-05-03 23:29 | 40.01288 | -80.81022 | 36980 ft | 516 kts | 50° |
| 2026-05-03 23:30 | 40.05323 | -80.73325 | 36977 ft | 516 kts | 50° |
| 2026-05-03 23:30 | 40.09369 | -80.65597 | 36969 ft | 516 kts | 50° |
| 2026-05-03 23:31 | 40.13335 | -80.57786 | 36988 ft | 517 kts | 53° |
| 2026-05-03 23:31 | 40.17048 | -80.49769 | 36991 ft | 518 kts | 54° |
| 2026-05-03 23:32 | 40.20711 | -80.41694 | 36993 ft | 518 kts | 54° |
| 2026-05-03 23:32 | 40.24407 | -80.33592 | 36994 ft | 518 kts | 54° |
| 2026-05-03 23:33 | 40.28101 | -80.25506 | 36992 ft | 518 kts | 54° |
| 2026-05-03 23:33 | 40.31796 | -80.17399 | 36967 ft | 518 kts | 54° |
| 2026-05-03 23:34 | 40.35487 | -80.09275 | 36961 ft | 519 kts | 54° |
| 2026-05-03 23:34 | 40.39150 | -80.01193 | 36958 ft | 519 kts | 54° |
| 2026-05-03 23:35 | 40.42823 | -79.93072 | 36959 ft | 519 kts | 54° |
| 2026-05-03 23:35 | 40.46509 | -79.84901 | 36990 ft | 520 kts | 54° |
| 2026-05-03 23:36 | 40.50188 | -79.76726 | 36968 ft | 520 kts | 54° |
| 2026-05-03 23:36 | 40.53861 | -79.68539 | 36979 ft | 520 kts | 55° |
| 2026-05-03 23:37 | 40.57511 | -79.60312 | 36980 ft | 520 kts | 55° |
| 2026-05-03 23:37 | 40.61123 | -79.52154 | 36979 ft | 520 kts | 55° |
| 2026-05-03 23:38 | 40.64779 | -79.43923 | 36997 ft | 520 kts | 55° |
| 2026-05-03 23:38 | 40.68431 | -79.35697 | 36963 ft | 519 kts | 55° |
| 2026-05-03 23:39 | 40.72072 | -79.27475 | 36960 ft | 519 kts | 55° |
| 2026-05-03 23:39 | 40.75707 | -79.19243 | 36958 ft | 519 kts | 55° |
| 2026-05-03 23:40 | 40.79339 | -79.10992 | 36957 ft | 520 kts | 55° |
| 2026-05-03 23:40 | 40.82964 | -79.02737 | 36983 ft | 520 kts | 56° |
| 2026-05-03 23:41 | 40.86558 | -78.94527 | 36989 ft | 518 kts | 56° |
| 2026-05-03 23:41 | 40.90165 | -78.86266 | 36989 ft | 518 kts | 56° |
| 2026-05-03 23:42 | 40.93761 | -78.78010 | 36988 ft | 518 kts | 56° |
| 2026-05-03 23:42 | 40.97344 | -78.69732 | 36986 ft | 518 kts | 56° |
| 2026-05-03 23:43 | 41.00910 | -78.61418 | 36994 ft | 519 kts | 56° |
| 2026-05-03 23:43 | 41.04447 | -78.53189 | 36980 ft | 518 kts | 56° |
| 2026-05-03 23:44 | 41.08020 | -78.44886 | 36980 ft | 518 kts | 56° |
| 2026-05-03 23:44 | 41.11589 | -78.36581 | 36981 ft | 519 kts | 56° |
| 2026-05-03 23:45 | 41.15156 | -78.28257 | 36981 ft | 519 kts | 56° |
| 2026-05-03 23:45 | 41.18703 | -78.19953 | 36985 ft | 518 kts | 56° |
| 2026-05-03 23:46 | 41.22247 | -78.11633 | 36977 ft | 517 kts | 57° |
| 2026-05-03 23:46 | 41.25667 | -78.03210 | 36972 ft | 519 kts | 60° |
| 2026-05-03 23:47 | 41.28732 | -77.94503 | 36966 ft | 520 kts | 62° |
| 2026-05-03 23:47 | 41.31725 | -77.85732 | 36965 ft | 521 kts | 62° |
| 2026-05-03 23:48 | 41.34742 | -77.76975 | 36974 ft | 521 kts | 62° |
| 2026-05-03 23:48 | 41.37773 | -77.68225 | 36956 ft | 520 kts | 62° |
| 2026-05-03 23:49 | 41.40785 | -77.59515 | 36947 ft | 520 kts | 62° |
| 2026-05-03 23:49 | 41.43807 | -77.50748 | 36945 ft | 521 kts | 62° |
| 2026-05-03 23:50 | 41.46314 | -77.43448 | 36945 ft | 521 kts | 62° |
| 2026-05-03 23:50 | 41.49833 | -77.33166 | 36962 ft | 521 kts | 62° |
| 2026-05-03 23:51 | 41.52830 | -77.24381 | 36941 ft | 519 kts | 62° |
| 2026-05-03 23:51 | 41.55816 | -77.15604 | 36937 ft | 519 kts | 63° |
| 2026-05-03 23:52 | 41.58773 | -77.06880 | 36927 ft | 519 kts | 63° |
| 2026-05-03 23:52 | 41.61718 | -76.98067 | 36927 ft | 519 kts | 63° |
| 2026-05-03 23:53 | 41.64665 | -76.89249 | 36923 ft | 519 kts | 63° |
| 2026-05-03 23:53 | 41.67625 | -76.80434 | 36928 ft | 519 kts | 63° |
| 2026-05-03 23:54 | 41.70574 | -76.71632 | 36927 ft | 518 kts | 63° |
| 2026-05-03 23:54 | 41.73520 | -76.62807 | 36928 ft | 518 kts | 63° |
| 2026-05-03 23:55 | 41.76456 | -76.53994 | 36926 ft | 518 kts | 63° |
| 2026-05-03 23:55 | 41.79553 | -76.45345 | 36927 ft | 518 kts | 60° |
| 2026-05-03 23:56 | 41.82806 | -76.36731 | 36924 ft | 517 kts | 60° |
| 2026-05-03 23:56 | 41.86060 | -76.28124 | 36928 ft | 517 kts | 60° |
| 2026-05-03 23:57 | 41.89297 | -76.19487 | 36933 ft | 517 kts | 60° |
| 2026-05-03 23:57 | 41.92518 | -76.10845 | 36928 ft | 518 kts | 60° |
| 2026-05-03 23:58 | 41.95739 | -76.02171 | 36936 ft | 519 kts | 60° |
| 2026-05-03 23:58 | 41.98955 | -75.93487 | 36926 ft | 519 kts | 61° |
| 2026-05-03 23:59 | 42.02171 | -75.84777 | 36937 ft | 519 kts | 61° |
| 2026-05-03 23:59 | 42.05376 | -75.76072 | 36936 ft | 519 kts | 61° |
| 2026-05-04 00:00 | 42.08547 | -75.67431 | 36934 ft | 520 kts | 61° |
| 2026-05-04 00:00 | 42.11747 | -75.58685 | 36933 ft | 520 kts | 61° |
| 2026-05-04 00:01 | 42.14918 | -75.49950 | 36924 ft | 518 kts | 62° |
| 2026-05-04 00:01 | 42.18061 | -75.41206 | 36918 ft | 518 kts | 62° |
| 2026-05-04 00:02 | 42.21220 | -75.32456 | 36915 ft | 519 kts | 62° |
| 2026-05-04 00:02 | 42.24386 | -75.23693 | 36912 ft | 519 kts | 62° |
| 2026-05-04 00:03 | 42.27548 | -75.14920 | 36919 ft | 519 kts | 62° |
| 2026-05-04 00:03 | 42.30678 | -75.06207 | 36913 ft | 518 kts | 62° |
| 2026-05-04 00:04 | 42.33818 | -74.97435 | 36907 ft | 519 kts | 62° |
| 2026-05-04 00:04 | 42.36955 | -74.88646 | 36906 ft | 519 kts | 62° |
| 2026-05-04 00:05 | 42.40090 | -74.79835 | 36904 ft | 519 kts | 62° |
| 2026-05-04 00:05 | 42.43210 | -74.71037 | 36905 ft | 518 kts | 62° |
| 2026-05-04 00:06 | 42.46319 | -74.62240 | 36901 ft | 517 kts | 62° |
| 2026-05-04 00:06 | 42.49399 | -74.53504 | 36903 ft | 517 kts | 62° |
| 2026-05-04 00:07 | 42.52464 | -74.44674 | 36900 ft | 517 kts | 63° |
| 2026-05-04 00:07 | 42.55526 | -74.35843 | 36910 ft | 517 kts | 63° |
| 2026-05-04 00:08 | 42.58599 | -74.27020 | 36893 ft | 516 kts | 63° |
| 2026-05-04 00:08 | 42.61665 | -74.18213 | 36888 ft | 516 kts | 63° |
| 2026-05-04 00:09 | 42.64210 | -74.10877 | 36892 ft | 516 kts | 63° |
| 2026-05-04 00:09 | 42.67263 | -74.02051 | 36899 ft | 516 kts | 63° |
| 2026-05-04 00:10 | 42.71208 | -73.90604 | 36907 ft | 515 kts | 63° |
| 2026-05-04 00:10 | 42.74108 | -73.81696 | 36904 ft | 516 kts | 70° |
| 2026-05-04 00:11 | 42.75309 | -73.72093 | 36908 ft | 517 kts | 90° |
| 2026-05-04 00:11 | 42.74962 | -73.62299 | 36901 ft | 518 kts | 94° |
| 2026-05-04 00:12 | 42.74575 | -73.52583 | 36895 ft | 518 kts | 92° |
| 2026-05-04 00:12 | 42.74412 | -73.42778 | 36873 ft | 518 kts | 91° |
| 2026-05-04 00:13 | 42.74337 | -73.33015 | 36868 ft | 508 kts | 91° |
| 2026-05-04 00:13 | 42.74260 | -73.23472 | 36868 ft | 504 kts | 91° |
| 2026-05-04 00:14 | 42.74157 | -73.13913 | 36778 ft | 506 kts | 92° |
| 2026-05-04 00:14 | 42.73922 | -73.09179 | 35896 ft | 507 kts | 97° |
| 2026-05-04 00:14 | 42.73462 | -73.04442 | 35042 ft | 504 kts | 99° |
| 2026-05-04 00:15 | 42.72897 | -72.99746 | 34214 ft | 501 kts | 99° |
| 2026-05-04 00:15 | 42.72306 | -72.95099 | 33300 ft | 498 kts | 99° |
| 2026-05-04 00:15 | 42.71725 | -72.90483 | 32353 ft | 500 kts | 99° |
| 2026-05-04 00:15 | 42.71153 | -72.85809 | 31432 ft | 501 kts | 98° |
| 2026-05-04 00:16 | 42.70593 | -72.81124 | 30531 ft | 500 kts | 98° |
| 2026-05-04 00:16 | 42.70044 | -72.76450 | 29580 ft | 500 kts | 98° |
| 2026-05-04 00:16 | 42.69505 | -72.71840 | 28733 ft | 500 kts | 98° |
| 2026-05-04 00:16 | 42.68952 | -72.67107 | 27988 ft | 499 kts | 97° |
| 2026-05-04 00:17 | 42.68408 | -72.62503 | 27309 ft | 498 kts | 98° |
| 2026-05-04 00:17 | 42.67848 | -72.57884 | 26644 ft | 493 kts | 98° |
| 2026-05-04 00:17 | 42.67287 | -72.53300 | 25968 ft | 489 kts | 97° |
| 2026-05-04 00:17 | 42.66733 | -72.48766 | 25336 ft | 484 kts | 97° |
| 2026-05-04 00:18 | 42.66185 | -72.44263 | 24913 ft | 480 kts | 97° |
| 2026-05-04 00:18 | 42.65642 | -72.39814 | 24719 ft | 470 kts | 97° |
| 2026-05-04 00:18 | 42.65116 | -72.35542 | 24473 ft | 449 kts | 97° |
| 2026-05-04 00:18 | 42.64612 | -72.31416 | 23974 ft | 439 kts | 97° |
| 2026-05-04 00:19 | 42.64127 | -72.27353 | 23226 ft | 432 kts | 96° |
| 2026-05-04 00:19 | 42.63659 | -72.23349 | 22467 ft | 425 kts | 96° |
| 2026-05-04 00:19 | 42.63202 | -72.19401 | 21736 ft | 421 kts | 96° |
| 2026-05-04 00:19 | 42.62750 | -72.15500 | 21040 ft | 416 kts | 96° |
| 2026-05-04 00:20 | 42.62307 | -72.11686 | 20381 ft | 412 kts | 96° |
| 2026-05-04 00:20 | 42.61861 | -72.07866 | 19709 ft | 408 kts | 96° |
| 2026-05-04 00:20 | 42.61413 | -72.04082 | 19066 ft | 404 kts | 96° |
| 2026-05-04 00:20 | 42.60956 | -72.00338 | 18428 ft | 400 kts | 97° |
| 2026-05-04 00:21 | 42.60496 | -71.96633 | 17726 ft | 396 kts | 97° |
| 2026-05-04 00:21 | 42.60040 | -71.92970 | 17047 ft | 392 kts | 97° |
| 2026-05-04 00:21 | 42.59587 | -71.89332 | 16418 ft | 389 kts | 97° |
| 2026-05-04 00:21 | 42.59138 | -71.85728 | 15774 ft | 386 kts | 97° |
| 2026-05-04 00:22 | 42.58672 | -71.82154 | 15156 ft | 383 kts | 98° |
| 2026-05-04 00:22 | 42.58150 | -71.78614 | 14551 ft | 380 kts | 99° |
| 2026-05-04 00:22 | 42.57605 | -71.75116 | 13949 ft | 377 kts | 99° |
| 2026-05-04 00:22 | 42.57058 | -71.71656 | 13320 ft | 373 kts | 99° |
| 2026-05-04 00:23 | 42.56519 | -71.68267 | 12697 ft | 370 kts | 99° |
| 2026-05-04 00:23 | 42.55980 | -71.64867 | 12174 ft | 367 kts | 99° |
| 2026-05-04 00:23 | 42.55445 | -71.61512 | 11866 ft | 359 kts | 100° |
| 2026-05-04 00:23 | 42.54845 | -71.58222 | 11761 ft | 354 kts | 102° |
| 2026-05-04 00:24 | 42.54208 | -71.55043 | 11691 ft | 353 kts | 103° |
| 2026-05-04 00:24 | 42.53539 | -71.51806 | 11469 ft | 352 kts | 103° |
| 2026-05-04 00:24 | 42.52872 | -71.48598 | 10835 ft | 352 kts | 103° |
| 2026-05-04 00:24 | 42.52210 | -71.45415 | 10315 ft | 348 kts | 103° |
| 2026-05-04 00:25 | 42.51563 | -71.42313 | 10085 ft | 335 kts | 103° |
| 2026-05-04 00:25 | 42.50949 | -71.39367 | 9976 ft | 316 kts | 103° |
| 2026-05-04 00:25 | 42.50361 | -71.36520 | 9847 ft | 312 kts | 103° |
| 2026-05-04 00:25 | 42.49791 | -71.33689 | 9800 ft | 311 kts | 102° |
| 2026-05-04 00:26 | 42.49234 | -71.30894 | 9734 ft | 310 kts | 102° |
| 2026-05-04 00:26 | 42.48673 | -71.28077 | 9647 ft | 310 kts | 102° |
| 2026-05-04 00:26 | 42.48112 | -71.25254 | 9594 ft | 310 kts | 102° |
| 2026-05-04 00:26 | 42.47551 | -71.22436 | 9525 ft | 309 kts | 102° |
| 2026-05-04 00:27 | 42.46987 | -71.19600 | 9087 ft | 314 kts | 102° |
| 2026-05-04 00:27 | 42.46424 | -71.16738 | 8510 ft | 314 kts | 101° |
| 2026-05-04 00:27 | 42.46015 | -71.13836 | 8050 ft | 311 kts | 96° |
| 2026-05-04 00:27 | 42.45722 | -71.10955 | 7664 ft | 307 kts | 94° |
| 2026-05-04 00:28 | 42.45462 | -71.08101 | 7281 ft | 303 kts | 94° |
| 2026-05-04 00:28 | 42.45213 | -71.05300 | 7018 ft | 295 kts | 94° |
| 2026-05-04 00:28 | 42.44942 | -71.02602 | 6887 ft | 283 kts | 96° |
| 2026-05-04 00:28 | 42.44628 | -71.00046 | 6819 ft | 273 kts | 97° |
| 2026-05-04 00:29 | 42.44316 | -70.97530 | 6751 ft | 268 kts | 93° |
| 2026-05-04 00:29 | 42.44367 | -70.95028 | 6688 ft | 264 kts | 77° |
| 2026-05-04 00:29 | 42.44677 | -70.92584 | 6621 ft | 263 kts | 73° |
| 2026-05-04 00:29 | 42.45041 | -70.90157 | 6563 ft | 263 kts | 73° |
| 2026-05-04 00:30 | 42.45409 | -70.87765 | 6508 ft | 263 kts | 73° |
| 2026-05-04 00:30 | 42.45782 | -70.85344 | 6445 ft | 261 kts | 73° |
| 2026-05-04 00:30 | 42.46150 | -70.82956 | 6330 ft | 261 kts | 73° |
| 2026-05-04 00:30 | 42.46519 | -70.80548 | 6212 ft | 259 kts | 73° |
| 2026-05-04 00:31 | 42.46870 | -70.78194 | 6069 ft | 251 kts | 73° |
| 2026-05-04 00:31 | 42.47203 | -70.75881 | 5931 ft | 249 kts | 73° |
| 2026-05-04 00:31 | 42.47531 | -70.73587 | 5858 ft | 247 kts | 73° |
| 2026-05-04 00:31 | 42.47858 | -70.71294 | 5851 ft | 248 kts | 73° |
| 2026-05-04 00:32 | 42.48186 | -70.69003 | 5847 ft | 248 kts | 74° |
| 2026-05-04 00:32 | 42.48513 | -70.66711 | 5845 ft | 247 kts | 73° |
| 2026-05-04 00:32 | 42.48840 | -70.64428 | 5844 ft | 247 kts | 73° |
| 2026-05-04 00:32 | 42.49170 | -70.62138 | 5842 ft | 248 kts | 73° |
| 2026-05-04 00:33 | 42.49499 | -70.59847 | 5838 ft | 248 kts | 73° |
| 2026-05-04 00:33 | 42.50135 | -70.55260 | 5832 ft | 248 kts | 79° |
| 2026-05-04 00:33 | 42.49924 | -70.52952 | 5840 ft | 253 kts | 110° |
| 2026-05-04 00:34 | 42.48917 | -70.51042 | 5858 ft | 249 kts | 145° |
| 2026-05-04 00:34 | 42.47343 | -70.50227 | 6008 ft | 240 kts | 182° |
| 2026-05-04 00:34 | 42.45719 | -70.50470 | 6017 ft | 231 kts | 204° |
| 2026-05-04 00:34 | 42.44450 | -70.51609 | 6000 ft | 214 kts | 240° |
| 2026-05-04 00:35 | 42.43907 | -70.53400 | 6035 ft | 205 kts | 262° |
| 2026-05-04 00:35 | 42.43598 | -70.55281 | 6008 ft | 204 kts | 263° |
| 2026-05-04 00:35 | 42.43280 | -70.57154 | 6009 ft | 204 kts | 262° |
| 2026-05-04 00:35 | 42.42960 | -70.59025 | 5956 ft | 205 kts | 262° |
| 2026-05-04 00:36 | 42.42639 | -70.60891 | 5685 ft | 202 kts | 262° |
| 2026-05-04 00:36 | 42.42320 | -70.62743 | 5421 ft | 202 kts | 262° |
| 2026-05-04 00:36 | 42.42001 | -70.64589 | 5157 ft | 201 kts | 262° |
| 2026-05-04 00:36 | 42.41686 | -70.66395 | 4889 ft | 190 kts | 262° |
| 2026-05-04 00:37 | 42.41391 | -70.68062 | 4632 ft | 175 kts | 263° |
| 2026-05-04 00:37 | 42.41118 | -70.69630 | 4394 ft | 169 kts | 263° |
| 2026-05-04 00:37 | 42.40852 | -70.71163 | 4190 ft | 164 kts | 263° |
| 2026-05-04 00:37 | 42.40602 | -70.72579 | 3946 ft | 149 kts | 263° |
| 2026-05-04 00:38 | 42.40373 | -70.73887 | 3743 ft | 138 kts | 263° |
| 2026-05-04 00:38 | 42.40155 | -70.75147 | 3581 ft | 138 kts | 264° |
| 2026-05-04 00:38 | 42.39937 | -70.76407 | 3411 ft | 137 kts | 263° |
| 2026-05-04 00:38 | 42.39716 | -70.77677 | 3231 ft | 137 kts | 264° |
| 2026-05-04 00:39 | 42.39498 | -70.78931 | 3049 ft | 137 kts | 264° |
| 2026-05-04 00:39 | 42.39281 | -70.80181 | 2857 ft | 136 kts | 263° |
| 2026-05-04 00:39 | 42.39066 | -70.81414 | 2667 ft | 137 kts | 263° |
| 2026-05-04 00:39 | 42.38847 | -70.82668 | 2490 ft | 137 kts | 263° |
| 2026-05-04 00:40 | 42.38629 | -70.83916 | 2308 ft | 135 kts | 262° |
| 2026-05-04 00:40 | 42.38412 | -70.85153 | 2123 ft | 135 kts | 262° |
| 2026-05-04 00:40 | 42.38195 | -70.86389 | 1938 ft | 135 kts | 262° |
| 2026-05-04 00:40 | 42.37978 | -70.87632 | 1757 ft | 137 kts | 262° |
| 2026-05-04 00:41 | 42.37758 | -70.88884 | 1560 ft | 137 kts | 262° |
| 2026-05-04 00:41 | 42.37536 | -70.90151 | 1364 ft | 139 kts | 262° |
| 2026-05-04 00:41 | 42.37313 | -70.91423 | 1180 ft | 139 kts | 261° |
| 2026-05-04 00:41 | 42.37089 | -70.92701 | 979 ft | 140 kts | 260° |
| 2026-05-04 00:42 | 42.36863 | -70.93986 | 806 ft | 140 kts | 259° |
| 2026-05-04 00:42 | 42.36637 | -70.95261 | 634 ft | 139 kts | 261° |
| 2026-05-04 00:42 | 42.36417 | -70.96515 | 412 ft | 136 kts | 260° |
| 2026-05-04 00:42 | 42.36196 | -70.97771 | 217 ft | 138 kts | 261° |
| 2026-05-04 00:43 | 42.35976 | -70.99023 | 40 ft | 131 kts | 261° |
| 2026-05-04 00:43 | 42.35803 | -71.00005 | 32 ft | 84 kts | 254° |
| 2026-05-04 00:43 | 42.35761 | -71.00453 | 33 ft | 35 kts | 277° |
| 2026-05-04 00:43 | 42.35781 | -71.00658 | 33 ft | 9 kts | 277° |
| 2026-05-04 00:44 | 42.35784 | -71.00682 | 33 ft | 0 kts | 277° |
| 2026-05-04 00:44 | 42.35785 | -71.00689 | 33 ft | 4 kts | 277° |
| 2026-05-04 00:44 | 42.35785 | -71.00698 | 33 ft | 0 kts | 277° |
| 2026-05-04 00:45 | 42.35786 | -71.00701 | 33 ft | 2 kts | 277° |
| 2026-05-04 00:45 | 42.35788 | -71.00724 | 33 ft | 0 kts | 278° |
| 2026-05-04 00:46 | 42.35790 | -71.00740 | 31 ft | 6 kts | 278° |
| 2026-05-04 00:46 | 42.35803 | -71.00841 | 33 ft | 15 kts | 280° |
| 2026-05-04 00:46 | 42.35822 | -71.01005 | 33 ft | 21 kts | 277° |
| 2026-05-04 00:46 | 42.35840 | -71.01200 | 33 ft | 21 kts | 278° |
| 2026-05-04 00:47 | 42.35859 | -71.01378 | 33 ft | 19 kts | 278° |
| 2026-05-04 00:47 | 42.35879 | -71.01526 | 33 ft | 14 kts | 281° |
| 2026-05-04 00:47 | 42.35891 | -71.01613 | 33 ft | 4 kts | 277° |
| 2026-05-04 00:47 | 42.35871 | -71.01651 | 33 ft | 6 kts | 216° |
| 2026-05-04 00:48 | 42.35840 | -71.01685 | 33 ft | 5 kts | 244° |
| 2026-05-04 00:48 | 42.35843 | -71.01769 | 32 ft | 12 kts | 283° |
| 2026-05-04 00:48 | 42.35865 | -71.01871 | 33 ft | 9 kts | 292° |
| 2026-05-04 00:48 | 42.35895 | -71.01950 | 33 ft | 8 kts | 298° |
| 2026-05-04 00:49 | 42.35919 | -71.02008 | 32 ft | 7 kts | 300° |
| 2026-05-04 00:49 | 42.35949 | -71.02071 | 31 ft | 9 kts | 302° |
| 2026-05-04 00:49 | 42.35973 | -71.02125 | 33 ft | 0 kts | 300° |
| 2026-05-04 00:49 | 42.35981 | -71.02143 | 33 ft | 7 kts | 301° |
| 2026-05-04 00:50 | 42.35982 | -71.02173 | 33 ft | 2 kts | 252° |
| 2026-05-04 00:50 | 42.35964 | -71.02199 | 32 ft | 5 kts | 219° |
| 2026-05-04 00:50 | 42.35948 | -71.02213 | 33 ft | 2 kts | 213° |
| 2026-05-04 00:50 | 42.35938 | -71.02222 | 31 ft | 2 kts | 212° |
| 2026-05-04 00:51 | 42.35932 | -71.02227 | 33 ft | 0 kts | 212° |